Time;durP1;ratioP1;P1;durP2;ratioP2;P2;SDS_P1;SDS_P2;PMS_P1;PMS_P2;Temp;Humidity;BMP_temperature;BMP_pressure;BME280_temperature;BME280_humidity;BME280_pressure;Samples;Min_cycle;Max_cycle;Signal;HPM_P1;HPM_P2
2022/05/11 00:01:13;;;;;;;12.60;6.70;;;;;;;12.16;53.28;98788.79;219204;1275;22963;-70
2022/05/11 00:06:23;;;;;;;10.50;6.50;;;;;;;12.10;53.46;98785.33;218067;1274;1565367;-71
2022/05/11 00:11:27;;;;;;;10.70;6.80;;;;;;;12.08;53.93;98786.52;219160;1275;22546;-70
2022/05/11 00:16:34;;;;;;;10.80;6.60;;;;;;;12.08;54.02;98783.20;219315;1274;24230;-69
2022/05/11 00:21:48;;;;;;;11.00;6.90;;;;;;;12.07;54.15;98780.59;219536;1276;24279;-70
2022/05/11 00:26:58;;;;;;;11.30;6.90;;;;;;;12.06;54.54;98773.80;219026;1276;25570;-70
2022/05/11 00:32:01;;;;;;;11.80;7.30;;;;;;;12.04;54.83;98761.20;219179;1274;22560;-70
2022/05/11 00:37:03;;;;;;;12.20;7.20;;;;;;;12.01;54.89;98760.03;219077;1275;24345;-70
2022/05/11 00:42:06;;;;;;;10.90;6.50;;;;;;;11.96;55.18;98756.23;220116;1275;24408;-70
2022/05/11 00:47:30;;;;;;;13.70;7.40;;;;;;;11.94;55.51;98753.71;219107;1274;24214;-69
2022/05/11 00:52:41;;;;;;;10.30;7.00;;;;;;;11.89;55.80;98748.77;219352;1274;22718;-69
2022/05/11 00:58:01;;;;;;;9.20;6.40;;;;;;;11.88;56.22;98753.84;219272;1275;24071;-69
2022/05/11 01:03:15;;;;;;;10.10;7.00;;;;;;;11.87;56.33;98751.30;219543;1274;24276;-69
2022/05/11 01:08:21;;;;;;;10.10;7.00;;;;;;;11.84;56.75;98752.38;219565;1275;24325;-69
2022/05/11 01:13:26;;;;;;;11.80;7.10;;;;;;;11.79;56.83;98753.52;219198;1274;22544;-69
2022/05/11 01:18:30;;;;;;;9.90;6.90;;;;;;;11.75;56.98;98748.88;219189;1274;25262;-69
2022/05/11 01:23:56;;;;;;;12.10;6.90;;;;;;;11.69;57.18;98744.64;219191;1274;23911;-69
2022/05/11 01:29:31;;;;;;;12.20;7.10;;;;;;;11.62;57.39;98742.51;219285;1275;22626;-69
2022/05/11 01:35:32;;;;;;;11.10;6.70;;;;;;;11.56;57.84;98737.31;219011;1274;22572;-69
2022/05/11 01:40:47;;;;;;;10.90;6.80;;;;;;;11.53;58.17;98737.30;219431;1274;24215;-70
2022/05/11 01:45:51;;;;;;;11.10;6.70;;;;;;;11.51;58.26;98733.73;219561;1274;24810;-70
2022/05/11 01:50:57;;;;;;;10.50;6.20;;;;;;;11.48;58.70;98729.60;219593;1273;22572;-70
2022/05/11 01:56:23;;;;;;;10.60;6.60;;;;;;;11.44;58.67;98729.30;219139;1276;26174;-70
2022/05/11 02:01:28;;;;;;;11.20;6.90;;;;;;;11.43;59.28;98724.77;219548;1274;22541;-70
2022/05/11 02:11:55;;;;;;;12.30;6.40;;;;;;;11.46;59.52;98722.55;219139;1275;24324;-70
2022/05/11 02:17:22;;;;;;;10.70;6.30;;;;;;;11.50;60.05;98712.42;220503;1277;25310;-70
2022/05/11 02:22:25;;;;;;;8.50;5.60;;;;;;;11.53;59.82;98713.38;220447;1274;24269;-70
2022/05/11 02:27:35;;;;;;;9.50;6.60;;;;;;;11.58;59.90;98708.90;220596;1276;25384;-69
2022/05/11 02:32:43;;;;;;;8.50;5.90;;;;;;;11.62;60.12;98708.71;219106;1277;26391;-70
2022/05/11 02:37:53;;;;;;;12.00;6.10;;;;;;;11.68;60.27;98708.07;219031;1274;22558;-69
2022/05/11 02:43:15;;;;;;;11.90;6.40;;;;;;;11.72;60.36;98700.42;219383;1274;25253;-70
2022/05/11 02:48:46;;;;;;;10.20;6.00;;;;;;;11.77;60.31;98697.31;219073;1277;22786;-69
2022/05/11 02:53:48;;;;;;;9.60;5.90;;;;;;;11.81;60.22;98690.27;219433;1276;23807;-71
2022/05/11 02:59:10;;;;;;;11.20;6.20;;;;;;;11.87;60.27;98692.56;219242;1275;24278;-69
2022/05/11 03:04:16;;;;;;;7.60;5.60;;;;;;;11.93;60.19;98691.60;219161;1276;22734;-70
2022/05/11 03:09:41;;;;;;;9.60;6.10;;;;;;;11.99;60.20;98691.34;220668;1277;24242;-70
2022/05/11 03:15:08;;;;;;;10.20;5.90;;;;;;;12.04;60.37;98684.90;220624;1274;24230;-71
2022/05/11 03:20:21;;;;;;;11.20;6.70;;;;;;;12.11;60.27;98683.36;219330;1274;23512;-70
2022/05/11 03:31:19;;;;;;;8.90;5.50;;;;;;;12.30;60.29;98682.15;219135;1274;27314;-71
2022/05/11 03:36:41;;;;;;;11.10;6.10;;;;;;;12.40;60.11;98680.51;218970;1275;22563;-70
2022/05/11 03:42:04;;;;;;;7.40;5.50;;;;;;;12.50;59.92;98681.34;220844;1274;22550;-69
2022/05/11 03:47:07;;;;;;;11.10;6.70;;;;;;;12.60;60.01;98678.81;219274;1274;22699;-69
2022/05/11 03:52:37;;;;;;;9.60;6.30;;;;;;;12.71;59.66;98675.06;219199;1274;22548;-70
2022/05/11 03:57:50;;;;;;;9.30;5.50;;;;;;;12.81;59.77;98676.45;219345;1274;22557;-69
2022/05/11 04:03:13;;;;;;;11.90;6.10;;;;;;;12.92;59.59;98680.59;219066;1277;22648;-69
2022/05/11 04:08:18;;;;;;;8.80;6.00;;;;;;;13.01;59.26;98682.48;219178;1275;22732;-69
2022/05/11 04:13:32;;;;;;;10.50;6.10;;;;;;;13.06;59.25;98684.92;219223;1276;25450;-69
2022/05/11 04:18:38;;;;;;;10.20;6.10;;;;;;;13.12;59.21;98684.80;219298;1273;25365;-70
2022/05/11 04:23:57;;;;;;;10.10;5.90;;;;;;;13.19;59.12;98685.86;219755;1274;22603;-70
2022/05/11 04:29:00;;;;;;;11.90;6.20;;;;;;;13.32;59.14;98684.52;219201;1275;25318;-68
2022/05/11 04:34:25;;;;;;;9.00;5.50;;;;;;;13.47;59.05;98684.20;219101;1277;22726;-70
2022/05/11 04:39:28;;;;;;;10.30;5.80;;;;;;;13.65;58.88;98685.13;219230;1275;24275;-69
2022/05/11 04:44:30;;;;;;;9.50;5.40;;;;;;;13.84;58.75;98692.52;219365;1273;22625;-71
2022/05/11 04:49:51;;;;;;;7.00;5.00;;;;;;;14.05;58.59;98686.34;219227;1274;22624;-70
2022/05/11 04:55:18;;;;;;;7.90;4.40;;;;;;;14.32;58.34;98680.80;219087;1274;22727;-71
2022/05/11 05:00:36;;;;;;;7.90;4.30;;;;;;;14.64;57.94;98679.77;220480;1278;25528;-70
2022/05/11 05:05:53;;;;;;;5.90;3.70;;;;;;;14.99;57.38;98677.47;220383;1274;22631;-70
2022/05/11 05:10:58;;;;;;;7.10;3.70;;;;;;;15.30;56.68;98676.74;220569;1274;22540;-70
2022/05/11 05:16:05;;;;;;;4.30;3.20;;;;;;;15.55;55.93;98677.94;220543;1274;22563;-70
2022/05/11 05:21:08;;;;;;;5.10;3.50;;;;;;;15.79;55.42;98678.83;220488;1277;22621;-70
2022/05/11 05:26:17;;;;;;;6.30;3.70;;;;;;;16.04;54.87;98684.88;220474;1276;23046;-71
2022/05/11 05:32:00;;;;;;;10.60;4.10;;;;;;;16.31;54.42;98687.32;219260;1275;22563;-69
2022/05/11 05:38:04;;;;;;;6.40;3.40;;;;;;;16.62;53.91;98690.69;218998;1274;22557;-75
2022/05/11 05:43:12;;;;;;;6.60;3.50;;;;;;;16.93;53.40;98694.30;221163;1275;22558;-75
2022/05/11 05:48:22;;;;;;;6.60;2.90;;;;;;;17.21;52.79;98695.58;220941;1275;22698;-74
2022/05/11 05:53:28;;;;;;;5.80;3.30;;;;;;;17.44;52.00;98699.59;221467;1277;22684;-74
2022/05/11 05:58:33;;;;;;;5.30;3.40;;;;;;;17.67;51.38;98697.11;221054;1275;22627;-74
2022/05/11 06:03:45;;;;;;;4.30;2.70;;;;;;;17.97;51.13;98696.62;221265;1274;22720;-74
2022/05/11 06:08:51;;;;;;;5.00;3.00;;;;;;;18.28;50.34;98697.95;221200;1274;24228;-74
2022/05/11 06:14:21;;;;;;;5.10;3.10;;;;;;;18.50;49.45;98701.45;221176;1274;24227;-74
2022/05/11 06:19:33;;;;;;;6.80;3.50;;;;;;;18.68;48.55;98704.23;221160;1275;23209;-73
2022/05/11 06:25:03;;;;;;;4.90;3.20;;;;;;;18.91;48.63;98707.60;221022;1274;26009;-73
2022/05/11 06:30:41;;;;;;;4.70;2.80;;;;;;;19.19;48.33;98714.17;220959;1274;22480;-74
2022/05/11 06:35:58;;;;;;;4.10;3.00;;;;;;;19.37;47.29;98714.25;220995;1274;24248;-74
2022/05/11 06:41:12;;;;;;;5.20;2.80;;;;;;;19.44;47.64;98715.98;221174;1274;22563;-76
2022/05/11 06:46:24;;;;;;;5.70;2.90;;;;;;;19.55;47.22;98715.88;221138;1274;22548;-73
2022/05/11 06:52:12;;;;;;;3.50;3.20;;;;;;;19.67;47.24;98712.36;222416;1275;23821;-74
2022/05/11 07:02:55;;;;;;;4.10;2.90;;;;;;;19.87;46.82;98714.44;220983;1276;23050;-73
2022/05/11 07:08:16;;;;;;;5.90;3.50;;;;;;;20.04;46.70;98711.02;220975;1276;25420;-74
2022/05/11 07:13:21;;;;;;;;;;;;;;;20.19;46.66;98706.70;220945;1274;25548;-73
2022/05/11 07:18:49;;;;;;;8.80;2.90;;;;;;;20.31;46.02;98700.36;220884;1277;24237;-73
2022/05/11 07:24:07;;;;;;;4.00;2.70;;;;;;;20.49;46.33;98697.54;220851;1274;23299;-74
2022/05/11 07:29:41;;;;;;;5.30;2.90;;;;;;;20.65;45.10;98695.19;221011;1274;22790;-74
2022/05/11 07:34:54;;;;;;;4.40;2.80;;;;;;;20.80;45.22;98694.96;221023;1275;25275;-73
2022/05/11 07:40:08;;;;;;;6.30;2.90;;;;;;;20.95;45.31;98690.58;221048;1276;25539;-73
2022/05/11 07:45:23;;;;;;;3.10;2.80;;;;;;;21.16;45.02;98689.64;221770;1274;22634;-72
2022/05/11 07:50:35;;;;;;;4.50;3.60;;;;;;;21.43;45.10;98684.12;220960;1275;28931;-72
2022/05/11 08:01:33;;;;;;;5.00;2.80;;;;;;;21.98;43.97;98669.05;220991;1274;22542;-72
2022/05/11 08:06:36;;;;;;;3.40;3.00;;;;;;;22.24;43.79;98670.73;220860;1275;22548;-72
2022/05/11 08:11:39;;;;;;;3.20;2.90;;;;;;;22.50;43.96;98669.79;221228;1274;22546;-73
2022/05/11 08:16:44;;;;;;;4.30;3.40;;;;;;;22.80;43.50;98665.77;221153;1274;22581;-72
2022/05/11 08:21:48;;;;;;;4.00;3.50;;;;;;;22.97;42.91;98662.59;221100;1273;22560;-72
2022/05/11 08:26:53;;;;;;;5.20;3.90;;;;;;;23.10;42.74;98655.88;221373;1274;22675;-72
2022/05/11 08:37:33;;;;;;;3.80;3.20;;;;;;;23.45;42.42;98670.88;220837;1274;22652;-72
2022/05/11 08:42:39;;;;;;;3.90;3.60;;;;;;;23.67;41.81;98673.34;221190;1274;22687;-72
2022/05/11 08:47:48;;;;;;;4.10;3.70;;;;;;;23.88;41.82;98671.08;221065;1275;23691;-72
2022/05/11 08:53:00;;;;;;;4.60;4.20;;;;;;;24.12;41.88;98662.71;221481;1274;22824;-72
2022/05/11 08:58:57;;;;;;;4.90;4.30;;;;;;;24.52;41.50;98661.27;221094;1274;22600;-73
2022/05/11 09:04:08;;;;;;;5.20;4.70;;;;;;;24.79;40.31;98654.12;221304;1275;22543;-73
2022/05/11 09:09:18;;;;;;;5.10;4.10;;;;;;;24.98;39.65;98654.17;220969;1274;22587;-72
2022/05/11 09:14:31;;;;;;;4.40;4.10;;;;;;;25.11;39.78;98649.96;220940;1274;22591;-73
2022/05/11 09:19:35;;;;;;;4.90;4.30;;;;;;;25.36;39.59;98653.45;220820;1276;24232;-72
2022/05/11 09:24:45;;;;;;;4.80;4.20;;;;;;;25.58;39.36;98655.66;220805;1276;24323;-72
2022/05/11 09:30:13;;;;;;;5.30;4.90;;;;;;;25.88;39.23;98655.95;220998;1275;25416;-72
2022/05/11 09:35:36;;;;;;;5.40;4.80;;;;;;;26.20;38.44;98654.50;221283;1274;22612;-72
2022/05/11 09:41:00;;;;;;;5.60;4.70;;;;;;;26.61;38.03;98654.42;223416;1275;22534;-72
2022/05/11 09:46:41;;;;;;;4.10;3.70;;;;;;;27.04;37.70;98645.11;221713;1274;22612;-71
2022/05/11 09:51:50;;;;;;;5.00;4.60;;;;;;;27.36;37.21;98642.23;220784;1275;22666;-71
2022/05/11 09:56:56;;;;;;;4.90;4.50;;;;;;;27.44;35.04;98640.20;222778;1274;23852;-72
2022/05/11 10:02:32;;;;;;;5.10;4.70;;;;;;;27.70;35.27;98629.84;220970;1274;24917;-73
2022/05/11 10:07:57;;;;;;;5.00;4.50;;;;;;;27.94;34.26;98626.63;220818;1274;22569;-72
2022/05/11 10:13:26;;;;;;;4.90;4.50;;;;;;;28.02;34.85;98629.09;221599;1274;23325;-71
2022/05/11 10:24:24;;;;;;;6.80;5.60;;;;;;;28.27;33.64;98622.98;220902;1274;24611;-71
2022/05/11 10:30:01;;;;;;;5.40;4.90;;;;;;;27.93;33.38;98626.40;220781;1274;26544;-71
2022/05/11 10:35:16;;;;;;;5.30;4.90;;;;;;;27.79;33.75;98622.14;221828;1274;24157;-73
2022/05/11 10:40:51;;;;;;;4.80;4.40;;;;;;;27.71;34.01;98624.73;225242;1274;22559;-71
2022/05/11 10:45:59;;;;;;;5.30;4.90;;;;;;;27.75;33.61;98621.30;220620;1276;22721;-73
2022/05/11 10:51:37;;;;;;;5.60;4.60;;;;;;;27.60;31.94;98617.84;222757;1274;22563;-70
2022/05/11 10:57:24;;;;;;;5.30;4.80;;;;;;;27.30;32.65;98612.26;221147;1274;22547;-72
2022/05/11 11:02:51;;;;;;;5.30;4.90;;;;;;;27.18;32.85;98605.36;221243;1276;24233;-72
2022/05/11 11:08:03;;;;;;;5.70;4.70;;;;;;;27.38;33.02;98602.62;220983;1275;25386;-71
2022/05/11 11:13:37;;;;;;;4.40;4.10;;;;;;;27.65;32.85;98601.20;220992;1274;24230;-70
2022/05/11 11:18:57;;;;;;;4.50;4.10;;;;;;;27.91;31.94;98596.05;220931;1274;22595;-73
2022/05/11 11:24:22;;;;;;;4.70;4.30;;;;;;;28.00;31.17;98591.50;221194;1274;22714;-69
2022/05/11 11:29:26;;;;;;;4.60;4.20;;;;;;;28.17;30.95;98582.59;218585;1274;22571;-70
2022/05/11 11:34:35;;;;;;;4.80;4.40;;;;;;;28.29;29.22;98578.56;223364;1273;22724;-71
2022/05/11 11:39:59;;;;;;;4.90;4.40;;;;;;;28.13;28.66;98586.80;220964;1274;23065;-72
2022/05/11 11:45:32;;;;;;;7.00;5.70;;;;;;;28.01;29.85;98580.88;220998;1274;22588;-71
2022/05/11 11:50:55;;;;;;;5.40;5.00;;;;;;;28.01;30.65;98579.23;221055;1274;23129;-72
2022/05/11 11:56:27;;;;;;;4.50;4.00;;;;;;;28.12;30.91;98580.04;221198;1274;22572;-71
2022/05/11 12:01:33;;;;;;;5.20;4.70;;;;;;;28.12;30.54;98572.58;221134;1274;22732;-71
2022/05/11 12:17:32;;;;;;;4.40;4.10;;;;;;;28.58;30.21;98563.88;221000;1274;23302;-72
2022/05/11 12:22:41;;;;;;;4.30;3.90;;;;;;;28.67;29.21;98559.73;221170;1273;22586;-71
2022/05/11 12:27:43;;;;;;;5.20;3.90;;;;;;;28.64;28.54;98552.00;220951;1276;23444;-71
2022/05/11 12:32:52;;;;;;;4.30;3.50;;;;;;;28.56;28.55;98546.83;220932;1275;23058;-72
2022/05/11 12:38:09;;;;;;;5.00;3.60;;;;;;;28.56;28.85;98541.78;221714;1274;22545;-72
2022/05/11 12:43:30;;;;;;;5.00;4.50;;;;;;;28.53;28.84;98545.92;220888;1274;22984;-71
2022/05/11 12:48:35;;;;;;;6.50;5.90;;;;;;;28.73;29.40;98541.55;220853;1274;25360;-71
2022/05/11 12:53:47;;;;;;;4.60;4.20;;;;;;;28.91;29.05;98540.65;220636;1275;22606;-71
2022/05/11 12:58:54;;;;;;;4.50;4.20;;;;;;;28.92;28.74;98544.27;221027;1275;25668;-71
2022/05/11 13:04:02;;;;;;;4.30;4.00;;;;;;;28.91;29.15;98545.52;222106;1274;23938;-71
2022/05/11 13:09:41;;;;;;;4.90;4.20;;;;;;;28.83;28.61;98545.34;221795;1274;22556;-71
2022/05/11 13:14:47;;;;;;;4.40;4.00;;;;;;;28.47;28.81;98533.72;220826;1277;24293;-69
2022/05/11 13:20:00;;;;;;;4.20;3.80;;;;;;;28.34;29.69;98538.93;218831;1276;24654;-69
2022/05/11 13:25:05;;;;;;;5.20;4.60;;;;;;;28.40;29.77;98540.66;219029;1275;22667;-69
2022/05/11 13:30:32;;;;;;;5.20;4.70;;;;;;;28.56;29.93;98532.96;218865;1274;22607;-69
2022/05/11 13:35:37;;;;;;;4.40;4.00;;;;;;;28.82;29.83;98523.79;218808;1274;23071;-69
2022/05/11 13:40:59;;;;;;;7.90;7.10;;;;;;;29.09;30.05;98510.81;218590;1274;25366;-70
2022/05/11 13:46:08;;;;;;;4.90;4.40;;;;;;;29.27;29.47;98508.73;218985;1274;22610;-71
2022/05/11 13:51:32;;;;;;;4.50;4.10;;;;;;;29.12;28.76;98504.61;219412;1274;22714;-69
2022/05/11 13:57:22;;;;;;;4.30;4.00;;;;;;;28.78;29.53;98505.65;218552;1274;24320;-69
2022/05/11 14:02:28;;;;;;;4.80;4.40;;;;;;;28.48;30.15;98493.25;221040;1273;22985;-70
2022/05/11 14:07:31;;;;;;;4.80;4.40;;;;;;;28.15;30.83;98491.82;221096;1274;22594;-70
2022/05/11 14:12:36;;;;;;;5.00;4.60;;;;;;;27.92;31.37;98487.14;218878;1274;22480;-71
2022/05/11 14:17:46;;;;;;;4.40;4.00;;;;;;;27.98;30.91;98486.29;218635;1273;22550;-70
2022/05/11 14:22:48;;;;;;;4.60;4.20;;;;;;;28.01;30.84;98482.32;219031;1273;22553;-71
2022/05/11 14:27:53;;;;;;;5.00;4.40;;;;;;;28.13;31.14;98472.48;221330;1273;22571;-70
2022/05/11 14:32:55;;;;;;;5.70;5.20;;;;;;;28.10;30.94;98467.89;220715;1274;22587;-69
2022/05/11 14:37:58;;;;;;;5.40;5.00;;;;;;;28.09;31.03;98463.75;219098;1273;25484;-70
2022/05/11 14:43:00;;;;;;;4.80;4.40;;;;;;;28.21;31.56;98458.70;220546;1276;25238;-70
2022/05/11 14:48:12;;;;;;;5.20;4.50;;;;;;;28.49;31.34;98452.70;220640;1276;22566;-69
2022/05/11 14:53:16;;;;;;;4.80;4.40;;;;;;;28.57;31.38;98447.86;219775;1275;24588;-70
2022/05/11 15:03:56;;;;;;;5.20;4.80;;;;;;;28.72;32.05;98441.11;218916;1274;25320;-70
2022/05/11 15:09:02;;;;;;;5.60;4.30;;;;;;;28.70;31.83;98440.20;219299;1274;25384;-70
2022/05/11 15:14:04;;;;;;;4.30;4.00;;;;;;;28.48;31.52;98437.37;219016;1274;22567;-70
2022/05/11 15:19:13;;;;;;;4.80;4.40;;;;;;;28.28;31.74;98434.67;218993;1275;22628;-70
2022/05/11 15:24:32;;;;;;;4.70;4.30;;;;;;;28.08;31.31;98434.41;220640;1274;23130;-70
2022/05/11 15:29:59;;;;;;;4.20;3.80;;;;;;;27.91;31.64;98421.95;221601;1274;22611;-71
2022/05/11 15:35:01;;;;;;;4.70;4.20;;;;;;;27.80;31.90;98418.95;220594;1277;22541;-70
2022/05/11 15:40:05;;;;;;;5.30;4.50;;;;;;;27.65;31.79;98412.70;220587;1275;24235;-69
2022/05/11 15:45:09;;;;;;;4.40;4.10;;;;;;;27.45;31.62;98411.98;219476;1274;22775;-71
2022/05/11 15:50:13;;;;;;;5.40;4.80;;;;;;;27.29;31.99;98406.18;220521;1275;22537;-69
2022/05/11 15:55:22;;;;;;;5.00;4.50;;;;;;;27.23;32.15;98408.61;218902;1274;25365;-70
2022/05/11 16:00:27;;;;;;;13.70;12.40;;;;;;;27.19;32.39;98402.84;219071;1274;22569;-69
2022/05/11 16:05:31;;;;;;;10.30;9.30;;;;;;;27.02;32.27;98399.17;219269;1274;25395;-69
2022/05/11 16:10:34;;;;;;;5.70;5.10;;;;;;;26.84;32.54;98398.49;219024;1274;22590;-71
2022/05/11 16:15:36;;;;;;;5.20;4.70;;;;;;;26.70;32.66;98396.09;220692;1274;22613;-69
2022/05/11 16:20:39;;;;;;;6.70;5.00;;;;;;;26.57;32.96;98393.20;218885;1275;22537;-70
2022/05/11 16:25:41;;;;;;;5.10;4.60;;;;;;;26.46;33.24;98390.79;225699;1274;24397;-69
2022/05/11 16:30:44;;;;;;;5.50;4.20;;;;;;;26.39;33.73;98386.29;219019;1275;22560;-70
2022/05/11 16:35:46;;;;;;;5.10;4.60;;;;;;;26.30;33.40;98380.79;218923;1275;25335;-69
2022/05/11 16:40:49;;;;;;;5.60;4.60;;;;;;;26.16;33.69;98379.88;218871;1274;25424;-70
2022/05/11 16:46:05;;;;;;;5.40;5.00;;;;;;;26.00;33.86;98374.48;219067;1274;22544;-70
2022/05/11 16:51:12;;;;;;;5.90;4.80;;;;;;;25.84;33.73;98367.65;219664;1274;24643;-69
2022/05/11 16:56:17;;;;;;;6.10;5.60;;;;;;;25.71;34.08;98363.65;221885;1274;24541;-69
2022/05/11 17:01:26;;;;;;;5.00;4.60;;;;;;;25.59;34.23;98361.98;218874;1275;22570;-69
2022/05/11 17:06:29;;;;;;;;;;;;;;;25.47;34.46;98358.75;219416;1274;25514;-70
2022/05/11 17:11:32;;;;;;;4.80;4.40;;;;;;;25.32;34.60;98357.79;220956;1276;22913;-69
2022/05/11 17:16:34;;;;;;;6.30;5.50;;;;;;;25.15;34.77;98360.65;219323;1277;24272;-70
2022/05/11 17:21:39;;;;;;;5.40;4.70;;;;;;;25.03;35.19;98363.59;219814;1275;23033;-69
2022/05/11 17:26:45;;;;;;;4.80;4.20;;;;;;;25.18;35.08;98363.23;219329;1276;25236;-71
2022/05/11 17:31:50;;;;;;;5.10;4.50;;;;;;;24.98;35.28;98364.69;218694;1275;22547;-70
2022/05/11 17:36:53;;;;;;;5.10;4.60;;;;;;;24.72;35.68;98364.17;218999;1274;22614;-73
2022/05/11 17:41:57;;;;;;;6.00;5.20;;;;;;;24.47;35.98;98361.20;219143;1274;22540;-70
2022/05/11 17:47:00;;;;;;;5.00;4.40;;;;;;;24.28;36.38;98363.39;221228;1274;22587;-70
2022/05/11 17:52:02;;;;;;;8.40;6.30;;;;;;;24.08;36.85;98368.39;219064;1274;24038;-71
2022/05/11 17:57:05;;;;;;;5.30;4.60;;;;;;;23.90;37.00;98370.92;219996;1274;25318;-69
2022/05/11 18:02:08;;;;;;;6.00;5.40;;;;;;;23.71;37.48;98363.42;219980;1276;24289;-70
2022/05/11 18:07:12;;;;;;;6.50;5.80;;;;;;;23.53;37.69;98362.20;219047;1274;25616;-70
2022/05/11 18:12:15;;;;;;;5.30;4.80;;;;;;;23.36;38.05;98362.60;219643;1274;22627;-71
2022/05/11 18:17:17;;;;;;;7.20;4.90;;;;;;;23.21;38.21;98363.48;218661;1274;24295;-70
2022/05/11 18:22:24;;;;;;;5.80;4.70;;;;;;;23.04;38.62;98362.52;219594;1274;24239;-71
2022/05/11 18:27:31;;;;;;;4.90;4.50;;;;;;;22.87;38.96;98364.45;221139;1273;24537;-70
2022/05/11 18:32:35;;;;;;;6.00;4.60;;;;;;;22.73;39.03;98363.88;219373;1274;25247;-70
2022/05/11 18:37:39;;;;;;;6.90;5.30;;;;;;;22.57;39.28;98369.15;220268;1274;23113;-70
2022/05/11 18:42:44;;;;;;;4.50;4.00;;;;;;;22.41;39.67;98372.21;218948;1275;22547;-69
2022/05/11 18:47:52;;;;;;;4.40;4.00;;;;;;;22.21;40.04;98374.35;218759;1275;25346;-70
2022/05/11 18:52:58;;;;;;;6.40;5.10;;;;;;;22.03;40.34;98379.18;219471;1274;22623;-69
2022/05/11 18:58:03;;;;;;;5.50;4.20;;;;;;;21.92;40.43;98383.66;219244;1276;22630;-70
2022/05/11 19:03:05;;;;;;;5.00;4.30;;;;;;;21.82;40.53;98388.70;221329;1276;22537;-70
2022/05/11 19:08:10;;;;;;;5.40;4.50;;;;;;;21.70;40.59;98391.84;218710;1276;22614;-71
2022/05/11 19:13:12;;;;;;;4.30;3.90;;;;;;;21.54;40.76;98390.95;221347;1276;23770;-70
2022/05/11 19:18:29;;;;;;;4.30;3.90;;;;;;;21.43;41.03;98396.48;220642;1274;24295;-69
2022/05/11 19:23:43;;;;;;;6.50;3.80;;;;;;;21.30;41.17;98397.47;221957;1277;22630;-73
2022/05/11 19:28:46;;;;;;;4.30;3.60;;;;;;;21.15;41.45;98399.86;220708;1275;22608;-70
2022/05/11 19:33:48;;;;;;;5.80;4.00;;;;;;;21.02;41.56;98403.31;220432;1275;22560;-69
2022/05/11 19:38:51;;;;;;;5.10;4.10;;;;;;;20.88;41.83;98394.65;218862;1275;22628;-70
2022/05/11 19:43:55;;;;;;;4.70;4.00;;;;;;;20.76;41.88;98390.50;218805;1277;25367;-71
2022/05/11 19:48:57;;;;;;;5.30;4.40;;;;;;;20.63;41.99;98394.33;220669;1274;24345;-70
2022/05/11 19:54:03;;;;;;;7.40;5.70;;;;;;;20.51;42.33;98385.72;219131;1274;25263;-70
2022/05/11 19:59:07;;;;;;;6.20;5.00;;;;;;;20.38;42.58;98391.65;219188;1276;22560;-70
2022/05/11 20:04:20;;;;;;;9.90;5.50;;;;;;;20.28;42.99;98392.88;221951;1275;22557;-71
2022/05/11 20:09:25;;;;;;;8.60;5.00;;;;;;;20.22;43.03;98397.91;221673;1274;24312;-70
2022/05/11 20:14:28;;;;;;;7.70;4.80;;;;;;;20.19;43.37;98398.64;220579;1276;24366;-70
2022/05/11 20:19:31;;;;;;;5.10;4.60;;;;;;;20.14;43.63;98397.68;220689;1276;22666;-70
2022/05/11 20:24:37;;;;;;;9.70;4.90;;;;;;;20.07;43.47;98398.41;220519;1276;25323;-69
2022/05/11 20:29:41;;;;;;;7.40;4.40;;;;;;;19.96;43.91;98399.23;218827;1274;22695;-70
2022/05/11 20:40:21;;;;;;;5.80;4.10;;;;;;;19.69;44.40;98394.59;221356;1275;22715;-70
2022/05/11 20:45:32;;;;;;;4.70;4.10;;;;;;;19.58;44.64;98394.19;220606;1275;25308;-70
2022/05/11 20:50:39;;;;;;;4.90;4.40;;;;;;;19.44;44.72;98390.36;219933;1275;26449;-71
2022/05/11 20:55:46;;;;;;;5.70;4.90;;;;;;;19.29;45.10;98389.27;221357;1276;22989;-70
2022/05/11 21:00:52;;;;;;;10.90;8.70;;;;;;;19.18;45.46;98388.34;220665;1274;22567;-69
2022/05/11 21:06:03;;;;;;;33.90;27.00;;;;;;;19.10;45.79;98387.63;218702;1277;22569;-69
2022/05/11 21:11:06;;;;;;;5.80;4.80;;;;;;;19.04;46.18;98385.78;220175;1276;22557;-70
2022/05/11 21:16:08;;;;;;;6.20;4.30;;;;;;;19.01;46.22;98385.95;220551;1274;22697;-70
2022/05/11 21:21:11;;;;;;;4.80;3.90;;;;;;;18.97;46.66;98385.62;220571;1275;25074;-70
2022/05/11 21:26:13;;;;;;;5.00;4.30;;;;;;;18.92;46.95;98386.60;220736;1274;24762;-69
2022/05/11 21:31:24;;;;;;;4.30;3.80;;;;;;;18.83;47.06;98390.10;218969;1274;24299;-70
2022/05/11 21:36:42;;;;;;;5.70;4.50;;;;;;;18.72;47.46;98387.52;219134;1274;23091;-69
2022/05/11 21:41:44;;;;;;;4.70;3.80;;;;;;;18.62;47.72;98389.94;220674;1274;25518;-70
2022/05/11 21:46:53;;;;;;;5.90;4.80;;;;;;;18.59;48.06;98393.57;218795;1276;22716;-70
2022/05/11 21:51:58;;;;;;;4.60;4.10;;;;;;;18.55;48.35;98394.10;219241;1275;25008;-69
2022/05/11 21:57:00;;;;;;;4.70;4.20;;;;;;;18.52;48.46;98393.10;219020;1276;22574;-70
2022/05/11 22:02:15;;;;;;;5.90;4.30;;;;;;;18.47;48.73;98397.77;219086;1277;22575;-70
2022/05/11 22:07:18;;;;;;;4.80;4.30;;;;;;;18.38;49.00;98391.66;218946;1274;22577;-70
2022/05/11 22:12:25;;;;;;;4.90;4.30;;;;;;;18.28;49.25;98391.58;219217;1274;22800;-70
2022/05/11 22:18:18;;;;;;;7.90;4.40;;;;;;;18.18;49.52;98395.80;218833;1277;25549;-70
2022/05/11 22:23:43;;;;;;;4.80;4.20;;;;;;;18.03;49.92;98397.68;219016;1276;22556;-70
2022/05/11 22:29:07;;;;;;;7.10;4.80;;;;;;;17.93;50.23;98395.40;218786;1274;22697;-70
2022/05/11 22:34:19;;;;;;;5.10;4.60;;;;;;;17.84;50.49;98396.51;218651;1277;22939;-69
2022/05/11 22:39:27;;;;;;;4.70;4.20;;;;;;;17.73;50.79;98392.28;218868;1274;24229;-67
2022/05/11 22:44:34;;;;;;;5.80;4.20;;;;;;;17.61;51.10;98389.23;218709;1276;22576;-69
2022/05/11 22:49:57;;;;;;;5.20;4.40;;;;;;;17.49;51.38;98392.23;218654;1277;22553;-70
2022/05/11 22:55:00;;;;;;;5.40;4.90;;;;;;;17.40;51.74;98390.66;219010;1275;24474;-69
2022/05/11 23:00:10;;;;;;;;;;;;;;;17.36;52.03;98389.84;218991;1274;26461;-70
2022/05/11 23:05:31;;;;;;;6.20;4.30;;;;;;;17.30;52.11;98388.45;219800;1274;22566;-70
2022/05/11 23:10:54;;;;;;;4.90;4.10;;;;;;;17.22;52.27;98385.81;218754;1274;24085;-70
2022/05/11 23:16:29;;;;;;;6.60;4.60;;;;;;;17.17;52.40;98384.66;218929;1274;22701;-70
2022/05/11 23:21:44;;;;;;;4.70;4.30;;;;;;;17.12;52.56;98382.42;218743;1274;25231;-70
2022/05/11 23:26:47;;;;;;;4.70;3.90;;;;;;;17.10;52.65;98379.59;219413;1274;22932;-70
2022/05/11 23:32:18;;;;;;;5.20;3.80;;;;;;;17.13;52.60;98370.48;220957;1276;22548;-70
2022/05/11 23:37:38;;;;;;;4.30;3.60;;;;;;;17.20;52.28;98367.56;220561;1275;22538;-70
2022/05/11 23:43:08;;;;;;;4.30;3.70;;;;;;;17.29;51.91;98363.73;221615;1274;22626;-69
2022/05/11 23:48:11;;;;;;;4.40;3.80;;;;;;;17.40;51.54;98360.02;218606;1278;22541;-69
2022/05/11 23:53:17;;;;;;;6.60;3.80;;;;;;;17.44;51.21;98354.81;218692;1278;22570;-69
2022/05/11 23:58:23;;;;;;;4.40;3.70;;;;;;;17.41;51.15;98350.64;221069;1277;22569;-69
